createdAt,value
2023-11-13T00:00:12.789Z,2.47
2023-11-13T00:02:41.429Z,2.00
2023-11-13T00:05:08.943Z,2.55
2023-11-13T00:07:35.942Z,2.60
2023-11-13T00:10:03.094Z,2.25
2023-11-13T00:12:30.919Z,1.50
2023-11-13T00:14:57.898Z,2.10
2023-11-13T00:17:25.484Z,1.90
2023-11-13T00:19:52.410Z,1.75
2023-11-13T00:22:19.335Z,2.17
2023-11-13T00:24:46.280Z,1.75
2023-11-13T00:27:13.307Z,1.70
2023-11-13T00:29:40.134Z,1.98
2023-11-13T00:32:07.484Z,2.10
2023-11-13T00:34:34.497Z,2.42
2023-11-13T00:37:01.590Z,2.00
2023-11-13T00:39:29.011Z,2.05
2023-11-13T00:41:55.942Z,1.55
2023-11-13T00:44:22.890Z,1.60
2023-11-13T00:46:50.796Z,1.70
2023-11-13T00:49:17.863Z,2.17
2023-11-13T00:51:44.911Z,1.58
2023-11-13T00:54:11.787Z,1.88
2023-11-13T00:56:38.786Z,1.88
2023-11-13T00:59:05.596Z,1.95
2023-11-13T01:01:32.477Z,1.95
2023-11-13T01:03:59.454Z,1.42
2023-11-13T01:06:27.073Z,1.48
2023-11-13T01:08:53.919Z,2.10
2023-11-13T01:11:20.818Z,1.27
2023-11-13T01:13:47.832Z,1.33
2023-11-13T01:16:15.308Z,1.20
2023-11-13T01:18:42.879Z,1.55
2023-11-13T01:21:10.073Z,1.20
2023-11-13T01:23:37.127Z,1.27
2023-11-13T01:26:04.150Z,1.40
2023-11-13T01:28:31.054Z,1.40
2023-11-13T01:30:58.159Z,1.33
2023-11-13T01:33:25.253Z,0.85
2023-11-13T01:35:52.382Z,1.42
2023-11-13T01:38:19.280Z,1.15
2023-11-13T01:40:47.580Z,1.42
2023-11-13T01:43:20.056Z,1.33
2023-11-13T01:45:47.935Z,1.45
2023-11-13T01:48:16.109Z,1.30
2023-11-13T01:50:43.676Z,1.23
2023-11-13T01:53:12.571Z,1.45
2023-11-13T01:55:40.161Z,1.25
2023-11-13T01:58:07.958Z,1.60
2023-11-13T02:00:35.572Z,1.35
2023-11-13T02:03:06.332Z,1.20
2023-11-13T02:05:33.649Z,1.50
2023-11-13T02:08:00.494Z,1.33
2023-11-13T02:10:27.731Z,1.38
2023-11-13T02:12:55.057Z,1.15
2023-11-13T02:15:22.075Z,1.23
2023-11-13T02:18:02.484Z,1.10
2023-11-13T02:20:30.967Z,1.45
2023-11-13T02:22:58.369Z,1.90
2023-11-13T02:25:26.718Z,2.08
2023-11-13T02:27:59.303Z,2.22
2023-11-13T02:30:26.301Z,1.88
2023-11-13T02:32:53.305Z,1.80
2023-11-13T02:35:20.290Z,1.48
2023-11-13T02:37:47.294Z,1.00
2023-11-13T02:40:14.330Z,1.30
2023-11-13T02:42:42.486Z,1.08
2023-11-13T02:45:10.710Z,1.10
2023-11-13T02:47:37.953Z,1.05
2023-11-13T02:50:06.408Z,1.00
2023-11-13T02:52:33.407Z,1.00
2023-11-13T02:55:00.375Z,1.30
2023-11-13T02:57:27.887Z,1.20
2023-11-13T02:59:55.001Z,0.82
2023-11-13T03:02:21.930Z,1.00
2023-11-13T03:04:48.772Z,1.10
2023-11-13T03:07:15.796Z,1.00
2023-11-13T03:09:42.702Z,1.65
2023-11-13T03:12:09.916Z,1.50
2023-11-13T03:14:36.843Z,1.30
2023-11-13T03:17:04.173Z,1.60
2023-11-13T03:19:31.011Z,1.10
2023-11-13T03:21:57.951Z,0.93
2023-11-13T03:24:24.791Z,1.38
2023-11-13T03:26:51.852Z,1.30
2023-11-13T03:29:18.854Z,1.48
2023-11-13T03:31:46.059Z,1.42
2023-11-13T03:34:13.762Z,1.50
2023-11-13T03:36:41.778Z,1.60
2023-11-13T03:39:08.731Z,2.08
2023-11-13T03:41:35.577Z,1.80
2023-11-13T03:44:02.491Z,2.50
2023-11-13T03:46:29.678Z,2.42
2023-11-13T03:48:56.997Z,2.40
2023-11-13T03:51:27.580Z,2.15
2023-11-13T03:53:54.832Z,2.95
2023-11-13T03:56:24.049Z,3.13
2023-11-13T03:58:51.144Z,2.70
2023-11-13T04:01:20.458Z,1.67
2023-11-13T04:03:47.882Z,1.90
2023-11-13T04:06:14.906Z,1.45
2023-11-13T04:08:42.065Z,1.55
2023-11-13T04:11:11.875Z,1.45
2023-11-13T04:13:39.887Z,1.15
2023-11-13T04:16:09.095Z,1.27
2023-11-13T04:18:36.215Z,1.00
2023-11-13T04:21:03.133Z,1.10
2023-11-13T04:23:32.540Z,1.40
2023-11-13T04:26:00.381Z,0.85
2023-11-13T04:28:32.317Z,1.15
2023-11-13T04:30:59.439Z,0.82
2023-11-13T04:33:26.630Z,1.42
2023-11-13T04:35:55.089Z,1.05
2023-11-13T04:38:22.094Z,0.93
2023-11-13T04:40:49.034Z,0.70
2023-11-13T04:43:16.119Z,0.65
2023-11-13T04:45:43.213Z,1.10
2023-11-13T04:48:10.172Z,1.02
2023-11-13T04:50:37.080Z,0.90
2023-11-13T04:53:04.081Z,1.30
2023-11-13T04:55:32.059Z,1.15
2023-11-13T04:57:59.227Z,1.27
2023-11-13T05:00:26.210Z,1.10
2023-11-13T05:02:53.077Z,1.95
2023-11-13T05:05:19.986Z,3.88
2023-11-13T05:07:46.897Z,1.73
2023-11-13T05:10:14.280Z,1.10
2023-11-13T05:12:41.200Z,1.02
2023-11-13T05:15:08.427Z,1.58
2023-11-13T05:17:39.422Z,1.10
2023-11-13T05:20:10.648Z,1.23
2023-11-13T05:22:37.546Z,1.10
2023-11-13T05:25:04.777Z,1.33
2023-11-13T05:27:32.014Z,1.00
2023-11-13T05:29:58.937Z,1.27
2023-11-13T05:32:25.916Z,1.15
2023-11-13T05:34:53.384Z,1.27
2023-11-13T05:37:20.442Z,1.00
2023-11-13T05:39:47.284Z,1.15
2023-11-13T05:42:14.158Z,0.93
2023-11-13T05:44:40.992Z,1.02
2023-11-13T05:47:08.019Z,0.90
2023-11-13T05:49:35.205Z,0.95
2023-11-13T05:52:02.706Z,1.20
2023-11-13T05:54:29.599Z,1.02
2023-11-13T05:56:56.490Z,2.03
2023-11-13T05:59:23.480Z,2.75
2023-11-13T06:01:50.827Z,1.67
2023-11-13T06:04:19.263Z,1.60
2023-11-13T06:06:47.263Z,1.52
2023-11-13T06:09:14.844Z,1.40
2023-11-13T06:11:41.960Z,1.50
2023-11-13T06:14:09.289Z,1.35
2023-11-13T06:16:36.391Z,1.77
2023-11-13T06:19:08.314Z,1.83
2023-11-13T06:21:35.779Z,1.60
2023-11-13T06:24:04.931Z,1.80
2023-11-13T06:26:32.009Z,2.10
2023-11-13T06:28:58.913Z,3.40
2023-11-13T06:31:27.529Z,4.88
2023-11-13T06:33:55.073Z,4.88
2023-11-13T06:36:23.490Z,4.70
2023-11-13T06:38:51.630Z,3.85
2023-11-13T06:41:18.537Z,5.78
2023-11-13T06:43:45.415Z,5.00
2023-11-13T06:46:12.783Z,5.25
2023-11-13T06:48:40.024Z,4.93
2023-11-13T06:51:10.886Z,4.57
2023-11-13T06:53:38.005Z,4.28
2023-11-13T06:56:07.972Z,3.97
2023-11-13T06:58:37.402Z,3.22
2023-11-13T07:01:04.986Z,3.83
2023-11-13T07:03:32.068Z,4.95
2023-11-13T07:05:59.043Z,4.45
2023-11-13T07:08:26.755Z,3.88
2023-11-13T07:10:54.039Z,2.88
2023-11-13T07:13:21.182Z,3.38
2023-11-13T07:15:48.091Z,3.15
2023-11-13T07:18:18.257Z,3.50
2023-11-13T07:20:46.300Z,3.60
2023-11-13T07:23:26.091Z,3.47
2023-11-13T07:25:55.802Z,3.47
2023-11-13T07:28:23.500Z,3.38
2023-11-13T07:30:50.546Z,3.63
2023-11-13T07:33:17.699Z,3.05
2023-11-13T07:35:44.681Z,2.70
2023-11-13T07:38:11.622Z,3.35
2023-11-13T07:40:38.744Z,3.92
2023-11-13T07:43:10.039Z,6.18
2023-11-13T07:45:39.549Z,4.13
2023-11-13T07:48:06.903Z,3.35
2023-11-13T07:50:33.881Z,2.83
2023-11-13T07:53:20.928Z,4.82
2023-11-13T07:55:48.015Z,4.15
2023-11-13T07:58:15.252Z,3.88
2023-11-13T08:00:42.198Z,3.15
2023-11-13T08:03:09.232Z,4.43
2023-11-13T08:05:36.399Z,3.80
2023-11-13T08:08:04.598Z,3.97
2023-11-13T08:10:34.119Z,4.05
2023-11-13T08:13:02.611Z,5.38
2023-11-13T08:15:32.088Z,92.82
2023-11-13T08:18:01.120Z,6.78
2023-11-13T08:20:29.041Z,4.55
2023-11-13T08:23:00.163Z,3.58
2023-11-13T08:25:27.638Z,3.58
2023-11-13T08:27:54.584Z,3.35
2023-11-13T08:30:24.278Z,3.55
2023-11-13T08:32:53.927Z,4.00
2023-11-13T08:35:21.099Z,4.55
2023-11-13T08:37:49.232Z,4.22
2023-11-13T08:40:19.937Z,6.63
2023-11-13T08:42:48.454Z,4.43
2023-11-13T08:45:19.066Z,4.20
2023-11-13T08:47:46.827Z,4.78
2023-11-13T08:50:13.961Z,44.75
2023-11-13T08:52:44.866Z,7.82
2023-11-13T08:55:13.358Z,6.65
2023-11-13T08:57:44.647Z,5.40
2023-11-13T09:00:20.206Z,3.77
2023-11-13T09:02:50.945Z,3.97
2023-11-13T09:05:20.338Z,3.60
2023-11-13T09:07:47.694Z,4.80
2023-11-13T09:10:17.463Z,5.72
2023-11-13T09:12:45.376Z,4.70
2023-11-13T09:15:15.335Z,5.72
2023-11-13T09:17:47.006Z,4.40
2023-11-13T09:20:20.485Z,4.85
2023-11-13T09:22:48.164Z,5.78
2023-11-13T09:25:16.589Z,5.18
2023-11-13T09:27:44.449Z,4.75
2023-11-13T09:30:12.626Z,6.07
2023-11-13T09:32:41.388Z,6.18
2023-11-13T09:35:19.221Z,6.75
2023-11-13T09:37:47.861Z,5.82
2023-11-13T09:40:20.647Z,6.10
2023-11-13T09:42:57.153Z,5.47
2023-11-13T09:45:24.244Z,5.60
2023-11-13T09:48:01.104Z,5.63
2023-11-13T09:50:29.037Z,5.82
2023-11-13T09:53:02.526Z,6.47
2023-11-13T09:55:31.341Z,5.32
2023-11-13T09:58:02.514Z,5.57
2023-11-13T10:00:34.426Z,6.40
2023-11-13T10:03:01.783Z,5.35
2023-11-13T10:05:31.560Z,5.93
2023-11-13T10:07:59.348Z,5.85
2023-11-13T10:10:29.228Z,5.55
2023-11-13T10:13:05.558Z,5.65
2023-11-13T10:15:33.895Z,5.55
2023-11-13T10:18:13.651Z,5.53
2023-11-13T10:20:47.722Z,5.22
2023-11-13T10:23:16.227Z,4.60
2023-11-13T10:25:51.462Z,5.35
2023-11-13T10:28:19.603Z,4.40
2023-11-13T10:30:53.300Z,5.70
2023-11-13T10:33:21.593Z,4.95
2023-11-13T10:35:51.642Z,6.65
2023-11-13T10:38:22.244Z,6.93
2023-11-13T10:41:05.171Z,6.25
2023-11-13T10:43:34.601Z,6.45
2023-11-13T10:46:02.806Z,7.78
2023-11-13T10:48:40.981Z,7.68
2023-11-13T10:51:10.272Z,10.75
2023-11-13T10:53:42.809Z,7.68
2023-11-13T10:56:10.747Z,7.30
2023-11-13T10:58:38.533Z,7.63
2023-11-13T11:01:07.091Z,7.85
2023-11-13T11:03:38.923Z,7.50
2023-11-13T11:06:12.709Z,8.68
2023-11-13T11:08:39.869Z,23.95
2023-11-13T11:11:13.727Z,14.77
2023-11-13T11:13:49.673Z,8.70
2023-11-13T11:16:44.445Z,8.57
2023-11-13T11:19:26.606Z,7.70
2023-11-13T11:22:05.698Z,8.57
2023-11-13T11:25:08.152Z,8.32
2023-11-13T11:27:43.680Z,7.95
2023-11-13T11:30:19.613Z,8.23
2023-11-13T11:33:07.028Z,8.02
2023-11-13T11:35:39.260Z,8.18
2023-11-13T11:40:42.543Z,8.20
2023-11-13T11:43:09.597Z,7.97
2023-11-13T11:45:36.520Z,8.40
2023-11-13T11:48:08.012Z,8.02
2023-11-13T11:50:35.091Z,8.20
2023-11-13T11:53:02.930Z,7.10
2023-11-13T11:55:31.608Z,8.50
2023-11-13T11:57:59.536Z,7.72
2023-11-13T12:00:27.468Z,7.82
2023-11-13T12:02:57.281Z,7.95
2023-11-13T12:05:24.775Z,11.30
2023-11-13T12:07:53.396Z,9.65
2023-11-13T12:10:24.159Z,8.48
2023-11-13T12:12:52.370Z,7.53
2023-11-13T12:15:20.419Z,7.53
2023-11-13T12:17:47.521Z,9.38
2023-11-13T12:20:21.261Z,7.78
2023-11-13T12:22:50.887Z,7.75
2023-11-13T12:25:18.562Z,7.57
2023-11-13T12:27:48.811Z,7.63
2023-11-13T12:30:25.286Z,8.20
2023-11-13T12:32:53.279Z,7.88
2023-11-13T12:35:22.613Z,7.72
2023-11-13T12:37:51.262Z,8.57
2023-11-13T12:40:21.039Z,7.70
2023-11-13T12:42:49.102Z,8.13
2023-11-13T12:45:18.792Z,8.30
2023-11-13T12:47:52.473Z,9.43
2023-11-13T12:50:21.732Z,8.82
2023-11-13T12:52:54.464Z,9.40
2023-11-13T12:55:24.038Z,8.35
2023-11-13T12:57:51.997Z,8.07
2023-11-13T13:00:21.602Z,8.70
2023-11-13T13:02:51.583Z,8.10
2023-11-13T13:05:28.967Z,7.90
2023-11-13T13:08:00.275Z,7.78
2023-11-13T13:10:33.188Z,8.57
2023-11-13T13:13:01.688Z,8.25
2023-11-13T13:15:33.047Z,7.15
2023-11-13T13:18:00.490Z,7.20
2023-11-13T13:20:35.089Z,7.45
2023-11-13T13:23:02.630Z,6.85
2023-11-13T13:25:32.380Z,7.32
2023-11-13T13:28:00.592Z,8.55
2023-11-13T13:30:32.698Z,7.97
2023-11-13T13:35:28.566Z,7.40
2023-11-13T13:37:55.458Z,8.15
2023-11-13T13:40:23.212Z,7.82
2023-11-13T13:42:50.295Z,6.63
2023-11-13T13:45:20.499Z,7.28
2023-11-13T13:47:49.727Z,7.82
2023-11-13T13:50:22.363Z,7.57
2023-11-13T13:52:57.195Z,7.80
2023-11-13T13:55:29.311Z,7.90
2023-11-13T13:58:01.632Z,7.90
2023-11-13T14:00:37.758Z,7.70
2023-11-13T14:03:12.997Z,7.80
2023-11-13T14:05:44.746Z,8.13
2023-11-13T14:08:17.314Z,8.30
2023-11-13T14:10:50.323Z,7.68
2023-11-13T14:13:18.757Z,8.07
2023-11-13T14:15:59.609Z,9.40
2023-11-13T14:18:34.040Z,9.27
2023-11-13T14:21:02.205Z,9.02
2023-11-13T14:23:29.893Z,9.05
2023-11-13T14:25:57.131Z,9.65
2023-11-13T14:28:24.262Z,9.30
2023-11-13T14:30:51.918Z,9.75
2023-11-13T14:33:20.591Z,10.63
2023-11-13T14:35:47.979Z,9.85
2023-11-13T14:38:15.911Z,10.55
2023-11-13T14:40:43.207Z,10.65
2023-11-13T14:43:10.340Z,12.90
2023-11-13T14:45:39.238Z,10.35
2023-11-13T14:48:06.868Z,10.90
2023-11-13T14:50:36.444Z,10.95
2023-11-13T14:53:03.565Z,10.27
2023-11-13T14:55:37.358Z,9.95
2023-11-13T14:58:04.425Z,10.65
2023-11-13T15:00:31.416Z,11.75
2023-11-13T15:02:58.461Z,10.20
2023-11-13T15:05:25.679Z,11.15
2023-11-13T15:07:53.086Z,10.90
2023-11-13T15:10:20.611Z,10.30
2023-11-13T15:12:48.313Z,10.60
2023-11-13T15:15:17.954Z,10.48
2023-11-13T15:17:47.221Z,11.43
2023-11-13T15:20:18.445Z,11.27
2023-11-13T15:25:19.698Z,15.50
2023-11-13T15:28:22.134Z,18.65
2023-11-13T15:34:21.403Z,19.42
2023-11-13T15:34:34.366Z,14.98
2023-11-13T15:37:01.440Z,14.48
2023-11-13T15:39:28.275Z,13.65
2023-11-13T15:41:55.086Z,20.77
2023-11-13T15:44:21.943Z,22.98
2023-11-13T15:46:48.828Z,16.08
2023-11-13T15:49:15.743Z,14.05
2023-11-13T15:51:42.697Z,14.55
2023-11-13T15:54:10.695Z,14.80
2023-11-13T15:56:37.582Z,13.80
2023-11-13T15:59:04.469Z,13.18
2023-11-13T16:01:31.312Z,12.82
2023-11-13T16:03:58.717Z,13.93
2023-11-13T16:06:27.502Z,17.10
2023-11-13T16:09:01.329Z,17.10
2023-11-13T16:11:28.858Z,16.80
2023-11-13T16:13:56.007Z,16.23
2023-11-13T16:16:23.409Z,16.95
2023-11-13T16:18:50.368Z,16.70
2023-11-13T16:21:20.680Z,17.67
2023-11-13T16:23:48.133Z,15.73
2023-11-13T16:26:15.051Z,15.48
2023-11-13T16:28:42.145Z,15.18
2023-11-13T16:31:09.635Z,14.75
2023-11-13T16:33:37.687Z,15.07
2023-11-13T16:36:12.405Z,15.80
2023-11-13T16:38:39.478Z,15.18
2023-11-13T16:41:06.631Z,15.02
2023-11-13T16:43:33.639Z,15.77
2023-11-13T16:46:02.222Z,14.02
2023-11-13T16:48:29.271Z,14.95
2023-11-13T16:50:56.166Z,15.20
2023-11-13T16:53:23.364Z,15.80
2023-11-13T16:55:53.172Z,15.85
2023-11-13T16:58:20.211Z,16.30
2023-11-13T17:00:47.148Z,16.45
2023-11-13T17:03:14.428Z,14.73
2023-11-13T17:05:47.473Z,15.52
2023-11-13T17:08:14.714Z,14.32
2023-11-13T17:10:42.074Z,15.43
2023-11-13T17:13:09.083Z,14.95
2023-11-13T17:15:36.998Z,15.73
2023-11-13T17:18:06.236Z,17.42
2023-11-13T17:20:34.495Z,17.33
2023-11-13T17:23:06.340Z,18.27
2023-11-13T17:25:33.536Z,17.38
2023-11-13T17:28:00.612Z,16.40
2023-11-13T17:30:27.435Z,17.27
2023-11-13T17:32:54.984Z,17.52
2023-11-13T17:35:21.890Z,17.05
2023-11-13T17:37:51.783Z,17.58
2023-11-13T17:40:27.477Z,15.40
2023-11-13T17:42:56.276Z,16.65
2023-11-13T17:45:26.979Z,18.95
2023-11-13T17:47:59.630Z,17.73
2023-11-13T17:50:27.864Z,17.17
2023-11-13T17:52:57.657Z,18.33
2023-11-13T17:55:29.459Z,18.65
2023-11-13T17:57:56.605Z,18.13
2023-11-13T18:00:23.792Z,17.73
2023-11-13T18:02:51.130Z,17.48
2023-11-13T18:05:22.603Z,18.17
2023-11-13T18:07:51.056Z,18.52
2023-11-13T18:10:18.014Z,17.67
2023-11-13T18:12:45.823Z,19.05
2023-11-13T18:15:13.869Z,16.40
2023-11-13T18:17:44.163Z,17.77
2023-11-13T18:20:16.405Z,16.48
2023-11-13T18:22:45.543Z,17.02
2023-11-13T18:25:12.750Z,15.13
2023-11-13T18:27:39.760Z,19.27
2023-11-13T18:30:07.588Z,20.67
2023-11-13T18:32:35.178Z,21.30
2023-11-13T18:35:02.175Z,24.33
2023-11-13T18:37:31.744Z,21.20
2023-11-13T18:40:00.628Z,23.90
2023-11-13T18:42:27.773Z,21.38
2023-11-13T18:44:54.730Z,19.75
2023-11-13T18:47:21.776Z,20.92
2023-11-13T18:49:52.191Z,19.05
2023-11-13T18:52:21.253Z,19.90
2023-11-13T18:54:48.116Z,18.17
2023-11-13T18:57:14.921Z,16.67
2023-11-13T18:59:44.511Z,17.25
2023-11-13T19:02:13.363Z,17.00
2023-11-13T19:04:40.472Z,19.05
2023-11-13T19:07:07.949Z,18.15
2023-11-13T19:09:36.207Z,18.13
2023-11-13T19:12:03.728Z,19.52
2023-11-13T19:14:30.739Z,18.75
2023-11-13T19:17:00.499Z,20.38
2023-11-13T19:19:27.418Z,19.67
2023-11-13T19:21:54.272Z,20.60
2023-11-13T19:24:22.299Z,20.75
2023-11-13T19:26:51.914Z,21.33
2023-11-13T19:29:22.508Z,21.75
2023-11-13T19:31:53.258Z,21.13
2023-11-13T19:34:20.748Z,20.90
2023-11-13T19:36:48.349Z,19.10
2023-11-13T19:39:15.861Z,18.90
2023-11-13T19:41:44.570Z,19.02
2023-11-13T19:44:12.592Z,20.05
2023-11-13T19:46:40.188Z,22.60
2023-11-13T19:49:09.029Z,23.25
2023-11-13T19:51:36.580Z,19.70
2023-11-13T19:54:04.862Z,22.10
2023-11-13T19:56:32.065Z,21.65
2023-11-13T19:58:59.274Z,20.50
2023-11-13T20:01:27.189Z,20.60
2023-11-13T20:03:54.923Z,22.23
2023-11-13T20:06:22.024Z,21.23
2023-11-13T20:08:51.955Z,22.63
2023-11-13T20:11:23.656Z,21.23
2023-11-13T20:13:51.073Z,22.15
2023-11-13T20:16:18.012Z,22.15
2023-11-13T20:18:44.993Z,27.08
2023-11-13T20:21:12.500Z,20.80
2023-11-13T20:23:39.392Z,20.50
2023-11-13T20:26:08.834Z,19.83
2023-11-13T20:28:36.530Z,19.58
2023-11-13T20:31:03.466Z,19.60
2023-11-13T20:33:32.400Z,20.42
2023-11-13T20:35:59.423Z,19.48
2023-11-13T20:38:26.424Z,19.73
2023-11-13T20:40:53.747Z,18.60
2023-11-13T20:43:21.103Z,18.83
2023-11-13T20:45:48.635Z,19.17
2023-11-13T20:48:16.303Z,19.48
2023-11-13T20:50:43.449Z,20.35
2023-11-13T20:53:10.798Z,26.88
2023-11-13T20:55:39.652Z,22.98
2023-11-13T20:58:08.961Z,22.58
2023-11-13T21:00:36.322Z,19.45
2023-11-13T21:03:03.555Z,21.42
2023-11-13T21:05:30.786Z,20.20
2023-11-13T21:07:57.749Z,19.33
2023-11-13T21:10:24.800Z,22.52
2023-11-13T21:12:51.825Z,22.65
2023-11-13T21:15:19.190Z,20.45
2023-11-13T21:17:46.200Z,24.17
2023-11-13T21:20:13.369Z,23.30
2023-11-13T21:22:45.496Z,21.35
2023-11-13T21:25:16.372Z,22.30
2023-11-13T21:27:44.293Z,21.48
2023-11-13T21:30:12.427Z,19.75
2023-11-13T21:32:39.656Z,20.15
2023-11-13T21:35:08.257Z,19.48
2023-11-13T21:37:35.429Z,19.08
2023-11-13T21:40:02.851Z,18.75
2023-11-13T21:42:29.715Z,21.75
2023-11-13T21:44:57.704Z,18.40
2023-11-13T21:47:24.704Z,17.95
2023-11-13T21:49:51.609Z,17.05
2023-11-13T21:52:20.255Z,17.48
2023-11-13T21:54:48.825Z,18.63
2023-11-13T21:57:15.689Z,19.85
2023-11-13T21:59:45.379Z,22.10
2023-11-13T22:02:14.177Z,19.98
2023-11-13T22:04:41.247Z,17.30
2023-11-13T22:07:10.511Z,16.52
2023-11-13T22:09:38.738Z,13.68
2023-11-13T22:12:06.161Z,15.13
2023-11-13T22:14:33.054Z,14.75
2023-11-13T22:17:02.068Z,13.70
2023-11-13T22:19:30.416Z,13.00
2023-11-13T22:21:57.383Z,13.73
2023-11-13T22:24:24.237Z,13.20
2023-11-13T22:26:51.070Z,12.10
2023-11-13T22:29:17.992Z,11.30
2023-11-13T22:31:45.187Z,11.63
2023-11-13T22:34:12.253Z,9.95
2023-11-13T22:36:41.427Z,9.73
2023-11-13T22:39:09.580Z,11.02
2023-11-13T22:41:36.681Z,11.13
2023-11-13T22:44:05.240Z,10.15
2023-11-13T22:46:32.407Z,9.48
2023-11-13T22:48:59.505Z,10.93
2023-11-13T22:51:26.814Z,9.95
2023-11-13T22:53:54.465Z,9.90
2023-11-13T22:56:21.325Z,9.98
2023-11-13T22:58:52.533Z,10.65
2023-11-13T23:01:20.836Z,9.80
2023-11-13T23:03:51.516Z,12.30
2023-11-13T23:06:18.648Z,9.25
2023-11-13T23:08:45.930Z,10.95
2023-11-13T23:11:13.043Z,12.82
2023-11-13T23:13:40.150Z,11.18
2023-11-13T23:16:09.943Z,12.15
2023-11-13T23:18:36.945Z,13.20
2023-11-13T23:21:04.534Z,10.80
2023-11-13T23:23:32.109Z,10.63
2023-11-13T23:26:00.714Z,10.73
2023-11-13T23:28:28.029Z,10.52
2023-11-13T23:30:55.360Z,10.48
2023-11-13T23:33:22.706Z,10.40
2023-11-13T23:35:49.670Z,10.00
2023-11-13T23:38:18.936Z,10.10
2023-11-13T23:40:46.719Z,9.77
2023-11-13T23:43:14.872Z,11.80
2023-11-13T23:45:41.993Z,10.18
2023-11-13T23:48:10.408Z,11.18
2023-11-13T23:50:37.532Z,10.50
2023-11-13T23:53:04.442Z,10.27
2023-11-13T23:55:31.435Z,10.65
2023-11-13T23:57:58.366Z,8.57
